createdAt,value
2022-12-11T00:01:59.438Z,-0.80
2022-12-11T00:04:25.814Z,-0.85
2022-12-11T00:06:52.138Z,-0.95
2022-12-11T00:09:18.467Z,-0.90
2022-12-11T00:11:44.826Z,-0.89
2022-12-11T00:14:11.148Z,-0.81
2022-12-11T00:16:37.539Z,-1.06
2022-12-11T00:19:04.204Z,-0.95
2022-12-11T00:21:30.530Z,-0.88
2022-12-11T00:23:56.844Z,-0.86
2022-12-11T00:26:23.176Z,-1.12
2022-12-11T00:28:49.500Z,-1.04
2022-12-11T00:31:15.855Z,-1.17
2022-12-11T00:33:42.207Z,-1.11
2022-12-11T00:36:08.553Z,-1.07
2022-12-11T00:38:34.878Z,-1.13
2022-12-11T00:41:01.404Z,-1.33
2022-12-11T00:43:27.719Z,-1.17
2022-12-11T00:45:54.066Z,-1.28
2022-12-11T00:48:20.426Z,-1.04
2022-12-11T00:50:46.730Z,-1.02
2022-12-11T00:53:13.069Z,-1.10
2022-12-11T00:55:39.400Z,-1.30
2022-12-11T00:58:05.731Z,-1.46
2022-12-11T01:00:32.033Z,-1.47
2022-12-11T01:02:58.455Z,-1.39
2022-12-11T01:05:24.832Z,-1.41
2022-12-11T01:07:51.191Z,-1.41
2022-12-11T01:10:26.793Z,-1.41
2022-12-11T01:12:53.217Z,-1.49
2022-12-11T01:15:19.610Z,-1.34
2022-12-11T01:17:45.941Z,-1.19
2022-12-11T01:20:12.255Z,-1.15
2022-12-11T01:22:38.579Z,-1.05
2022-12-11T01:25:05.197Z,-1.18
2022-12-11T01:27:31.519Z,-1.07
2022-12-11T01:29:57.831Z,-1.22
2022-12-11T01:32:24.150Z,-1.43
2022-12-11T01:34:50.497Z,-1.40
2022-12-11T01:37:16.846Z,-1.37
2022-12-11T01:39:43.182Z,-1.34
2022-12-11T01:42:10.533Z,-1.34
2022-12-11T01:44:37.443Z,-1.15
2022-12-11T01:47:03.758Z,-1.36
2022-12-11T01:49:30.059Z,-1.38
2022-12-11T01:51:56.373Z,-1.19
2022-12-11T01:54:22.713Z,-1.16
2022-12-11T01:56:49.022Z,-1.48
2022-12-11T01:59:15.372Z,-1.29
2022-12-11T02:01:42.520Z,-1.29
2022-12-11T02:04:08.911Z,-1.50
2022-12-11T02:06:35.223Z,-1.48
2022-12-11T02:09:01.535Z,-1.33
2022-12-11T02:11:27.844Z,-1.41
2022-12-11T02:13:54.163Z,-1.21
2022-12-11T02:16:20.585Z,-1.13
2022-12-11T02:18:46.990Z,-1.27
2022-12-11T02:21:13.314Z,-1.41
2022-12-11T02:23:39.708Z,-1.44
2022-12-11T02:26:06.023Z,-1.42
2022-12-11T02:28:32.337Z,-1.61
2022-12-11T02:30:58.688Z,-1.56
2022-12-11T02:33:25.018Z,-1.45
2022-12-11T02:35:51.356Z,-1.46
2022-12-11T02:38:17.902Z,-1.45
2022-12-11T02:40:44.229Z,-1.55
2022-12-11T02:43:10.536Z,-1.55
2022-12-11T02:45:36.964Z,-1.49
2022-12-11T02:48:03.359Z,-1.63
2022-12-11T02:50:29.682Z,-1.69
2022-12-11T02:52:56.015Z,-1.49
2022-12-11T02:55:22.329Z,-1.54
2022-12-11T02:57:48.671Z,-1.75
2022-12-11T03:00:16.745Z,-1.45
2022-12-11T03:02:43.212Z,-1.70
2022-12-11T03:05:09.780Z,-1.67
2022-12-11T03:07:36.302Z,-1.70
2022-12-11T03:10:02.616Z,-1.70
2022-12-11T03:12:29.203Z,-1.51
2022-12-11T03:14:55.515Z,-1.60
2022-12-11T03:17:21.828Z,-1.44
2022-12-11T03:19:48.148Z,-1.63
2022-12-11T03:22:14.457Z,-1.62
2022-12-11T03:24:40.782Z,-1.83
2022-12-11T03:27:11.154Z,-1.75
2022-12-11T03:29:37.703Z,-1.77
2022-12-11T03:32:04.009Z,-1.77
2022-12-11T03:34:30.340Z,-1.90
2022-12-11T03:36:56.700Z,-1.93
2022-12-11T03:39:23.045Z,-1.99
2022-12-11T03:41:49.375Z,-1.88
2022-12-11T03:44:15.678Z,-1.83
2022-12-11T03:46:42.013Z,-1.65
2022-12-11T03:49:08.336Z,-1.43
2022-12-11T03:51:34.675Z,-1.44
2022-12-11T03:54:00.991Z,-1.70
2022-12-11T03:56:27.631Z,-1.72
2022-12-11T03:58:54.283Z,-1.71
2022-12-11T04:01:20.653Z,-1.75
2022-12-11T04:03:47.038Z,-1.82
2022-12-11T04:06:13.414Z,-1.70
2022-12-11T04:08:39.729Z,-1.94
2022-12-11T04:11:24.998Z,-1.83
2022-12-11T04:14:11.315Z,-1.75
2022-12-11T04:16:37.760Z,-1.59
2022-12-11T04:19:23.032Z,-1.56
2022-12-11T04:22:07.859Z,-1.60
2022-12-11T04:24:34.167Z,-1.64
2022-12-11T04:27:00.499Z,-1.87
2022-12-11T04:29:26.822Z,-1.68
2022-12-11T04:31:53.163Z,-1.81
2022-12-11T04:34:19.502Z,-1.77
2022-12-11T04:36:45.837Z,-1.87
2022-12-11T04:39:12.162Z,-1.86
2022-12-11T04:41:39.152Z,-1.90
2022-12-11T04:44:05.456Z,-1.86
2022-12-11T04:46:31.882Z,-1.90
2022-12-11T04:49:00.278Z,-2.02
2022-12-11T04:51:26.619Z,-2.03
2022-12-11T04:53:52.927Z,-1.87
2022-12-11T04:56:19.271Z,-1.95
2022-12-11T04:58:45.623Z,-1.98
2022-12-11T05:01:12.060Z,-1.90
2022-12-11T05:03:38.467Z,-1.74
2022-12-11T05:06:04.784Z,-2.05
2022-12-11T05:08:31.105Z,-1.91
2022-12-11T05:10:57.739Z,-1.95
2022-12-11T05:13:24.052Z,-1.92
2022-12-11T05:15:50.418Z,-1.94
2022-12-11T05:18:16.929Z,-1.81
2022-12-11T05:20:43.235Z,-1.77
2022-12-11T05:23:09.573Z,-1.81
2022-12-11T05:25:35.883Z,-1.92
2022-12-11T05:28:02.191Z,-2.08
2022-12-11T05:30:28.507Z,-1.94
2022-12-11T05:32:54.942Z,-1.88
2022-12-11T05:35:21.267Z,-2.01
2022-12-11T05:37:47.578Z,-2.03
2022-12-11T05:40:13.928Z,-2.22
2022-12-11T05:42:40.264Z,-2.20
2022-12-11T05:45:06.610Z,-2.18
2022-12-11T05:47:32.953Z,-2.10
2022-12-11T05:49:59.249Z,-2.23
2022-12-11T05:52:25.562Z,-2.25
2022-12-11T05:54:51.915Z,-2.31
2022-12-11T05:57:18.250Z,-2.16
2022-12-11T05:59:45.358Z,-2.01
2022-12-11T06:02:11.776Z,-2.07
2022-12-11T06:04:38.190Z,-1.90
2022-12-11T06:07:04.502Z,-2.19
2022-12-11T06:09:30.841Z,-2.27
2022-12-11T06:11:57.158Z,-2.36
2022-12-11T06:14:23.470Z,-2.44
2022-12-11T06:16:50.525Z,-2.27
2022-12-11T06:19:18.517Z,-2.34
2022-12-11T06:21:51.494Z,-2.37
2022-12-11T06:24:17.888Z,-2.41
2022-12-11T06:26:44.214Z,-2.45
2022-12-11T06:29:12.879Z,-2.45
2022-12-11T06:31:39.758Z,-2.56
2022-12-11T06:34:06.201Z,-2.61
2022-12-11T06:36:32.537Z,-2.70
2022-12-11T06:38:59.163Z,-2.57
2022-12-11T06:41:25.931Z,-2.60
2022-12-11T06:43:52.521Z,-2.54
2022-12-11T06:46:18.921Z,-2.77
2022-12-11T06:48:45.410Z,-2.61
2022-12-11T06:51:12.472Z,-2.57
2022-12-11T06:53:38.836Z,-2.63
2022-12-11T06:56:05.206Z,-2.61
2022-12-11T06:58:31.570Z,-2.61
2022-12-11T07:00:57.934Z,-2.71
2022-12-11T07:03:24.303Z,-2.52
2022-12-11T07:05:50.611Z,-2.78
2022-12-11T07:08:17.058Z,-2.66
2022-12-11T07:10:43.469Z,-2.77
2022-12-11T07:13:09.912Z,-2.68
2022-12-11T07:15:40.226Z,-2.67
2022-12-11T07:18:06.860Z,-2.73
2022-12-11T07:20:33.189Z,-2.50
2022-12-11T07:22:59.540Z,-2.65
2022-12-11T07:25:25.845Z,-2.79
2022-12-11T07:27:52.163Z,-2.89
2022-12-11T07:30:18.494Z,-2.79
2022-12-11T07:32:45.146Z,-2.75
2022-12-11T07:35:11.764Z,-2.86
2022-12-11T07:37:38.329Z,-2.76
2022-12-11T07:40:04.655Z,-2.81
2022-12-11T07:42:31.002Z,-2.89
2022-12-11T07:44:57.328Z,-2.90
2022-12-11T07:47:23.739Z,-2.93
2022-12-11T07:49:50.080Z,-2.80
2022-12-11T07:52:16.435Z,-2.85
2022-12-11T07:54:42.753Z,-2.79
2022-12-11T07:57:14.217Z,-2.80
2022-12-11T07:59:41.929Z,-2.77
2022-12-11T08:02:08.393Z,-2.84
2022-12-11T08:04:34.797Z,-2.89
2022-12-11T08:07:01.153Z,-2.88
2022-12-11T08:09:27.541Z,-2.87
2022-12-11T08:11:53.917Z,-2.88
2022-12-11T08:14:20.286Z,-2.62
2022-12-11T08:16:46.678Z,-2.96
2022-12-11T08:19:13.057Z,-2.86
2022-12-11T08:21:40.193Z,-2.98
2022-12-11T08:24:06.588Z,-2.99
2022-12-11T08:26:33.142Z,-2.71
2022-12-11T08:28:59.522Z,-2.71
2022-12-11T08:31:25.905Z,-3.08
2022-12-11T08:33:52.359Z,-3.15
2022-12-11T08:36:18.755Z,-2.99
2022-12-11T08:38:45.121Z,-2.99
2022-12-11T08:41:11.429Z,-2.92
2022-12-11T08:43:37.931Z,-2.85
2022-12-11T08:46:04.270Z,-2.67
2022-12-11T08:48:30.594Z,-2.52
2022-12-11T08:50:56.931Z,-2.78
2022-12-11T08:53:23.242Z,-2.86
2022-12-11T08:55:49.550Z,-2.79
2022-12-11T08:58:15.863Z,-2.81
2022-12-11T09:00:42.246Z,-2.80
2022-12-11T09:03:12.781Z,-2.78
2022-12-11T09:05:40.187Z,-2.84
2022-12-11T09:08:07.275Z,-2.79
2022-12-11T09:10:33.626Z,-2.87
2022-12-11T09:12:59.934Z,-2.83
2022-12-11T09:15:26.292Z,-2.63
2022-12-11T09:17:52.617Z,-2.71
2022-12-11T09:20:18.938Z,-2.67
2022-12-11T09:22:45.327Z,-2.66
2022-12-11T09:25:14.908Z,-2.72
2022-12-11T09:27:41.279Z,-2.66
2022-12-11T09:30:07.604Z,-2.58
2022-12-11T09:32:33.926Z,-2.54
2022-12-11T09:35:00.227Z,-2.63
2022-12-11T09:37:26.579Z,-2.49
2022-12-11T09:39:52.898Z,-2.51
2022-12-11T09:42:19.536Z,-2.30
2022-12-11T09:44:46.009Z,-2.66
2022-12-11T09:47:12.864Z,-2.72
2022-12-11T09:49:39.399Z,-2.49
2022-12-11T09:52:05.736Z,-2.47
2022-12-11T09:54:32.537Z,-2.46
2022-12-11T09:56:59.087Z,-2.36
2022-12-11T09:59:25.458Z,-2.59
2022-12-11T10:01:51.838Z,-2.75
2022-12-11T10:04:18.180Z,-2.59
2022-12-11T10:06:45.084Z,-2.54
2022-12-11T10:09:11.397Z,-2.54
2022-12-11T10:11:37.803Z,-2.61
2022-12-11T10:14:04.131Z,-2.58
2022-12-11T10:16:30.473Z,-2.42
2022-12-11T10:18:56.900Z,-2.62
2022-12-11T10:21:23.495Z,-2.38
2022-12-11T10:23:49.842Z,-2.14
2022-12-11T10:26:16.181Z,-2.27
2022-12-11T10:28:42.489Z,-2.04
2022-12-11T10:31:08.963Z,-2.25
2022-12-11T10:33:35.376Z,-1.82
2022-12-11T10:36:01.717Z,-1.81
2022-12-11T10:38:28.044Z,-2.09
2022-12-11T10:40:54.496Z,-1.98
2022-12-11T10:43:20.875Z,-1.98
2022-12-11T10:45:47.186Z,-2.13
2022-12-11T10:48:13.501Z,-1.96
2022-12-11T10:50:39.831Z,-2.02
2022-12-11T10:53:06.157Z,-2.09
2022-12-11T10:55:32.532Z,-2.20
2022-12-11T10:57:58.884Z,-1.79
2022-12-11T11:00:25.215Z,-2.10
2022-12-11T11:02:51.585Z,-1.74
2022-12-11T11:05:18.036Z,-1.86
2022-12-11T11:07:44.424Z,-1.53
2022-12-11T11:10:10.857Z,-1.79
2022-12-11T11:12:37.447Z,-1.99
2022-12-11T11:15:03.802Z,-1.56
2022-12-11T11:17:34.603Z,-1.56
2022-12-11T11:20:01.677Z,-1.64
2022-12-11T11:22:28.031Z,-1.59
2022-12-11T11:24:54.349Z,-2.01
2022-12-11T11:27:20.654Z,-1.88
2022-12-11T11:29:52.997Z,-1.98
2022-12-11T11:32:19.651Z,-1.99
2022-12-11T11:34:45.964Z,-1.65
2022-12-11T11:37:12.313Z,-1.76
2022-12-11T11:39:38.657Z,-1.84
2022-12-11T11:42:04.963Z,-1.90
2022-12-11T11:44:31.295Z,-1.77
2022-12-11T11:46:57.731Z,-1.80
2022-12-11T11:49:24.167Z,-2.19
2022-12-11T11:51:50.494Z,-2.06
2022-12-11T11:54:16.836Z,-2.26
2022-12-11T11:56:43.160Z,-2.28
2022-12-11T11:59:09.523Z,-2.16
2022-12-11T12:01:35.856Z,-2.03
2022-12-11T12:04:02.181Z,-2.06
2022-12-11T12:06:28.779Z,-2.20
2022-12-11T12:08:55.097Z,-2.44
2022-12-11T12:11:21.514Z,-2.36
2022-12-11T12:13:50.143Z,-2.24
2022-12-11T12:16:50.520Z,-2.44
2022-12-11T12:19:03.205Z,-2.53
2022-12-11T12:21:29.547Z,-2.36
2022-12-11T12:23:56.161Z,-2.50
2022-12-11T12:26:22.533Z,-2.28
2022-12-11T12:28:51.883Z,-2.47
2022-12-11T12:31:18.344Z,-2.23
2022-12-11T12:33:44.736Z,-2.40
2022-12-11T12:36:11.045Z,-2.23
2022-12-11T12:38:37.367Z,-2.21
2022-12-11T12:41:03.805Z,-2.45
2022-12-11T12:43:30.114Z,-2.31
2022-12-11T12:45:56.568Z,-2.37
2022-12-11T12:48:22.965Z,-2.19
2022-12-11T12:50:49.287Z,-2.17
2022-12-11T12:53:15.626Z,-2.08
2022-12-11T12:55:41.931Z,-2.12
2022-12-11T12:58:08.267Z,-2.40
2022-12-11T13:00:34.901Z,-2.39
2022-12-11T13:03:01.382Z,-2.21
2022-12-11T13:05:27.709Z,-2.32
2022-12-11T13:07:54.686Z,-2.35
2022-12-11T13:10:21.130Z,-2.27
2022-12-11T13:12:47.518Z,-2.35
2022-12-11T13:15:13.951Z,-2.54
2022-12-11T13:17:40.426Z,-2.44
2022-12-11T13:20:06.846Z,-2.34
2022-12-11T13:22:33.242Z,-2.34
2022-12-11T13:25:01.718Z,-2.43
2022-12-11T13:27:28.212Z,-2.43
2022-12-11T13:29:54.535Z,-2.48
2022-12-11T13:32:20.876Z,-2.46
2022-12-11T13:34:47.189Z,-2.32
2022-12-11T13:37:13.534Z,-2.18
2022-12-11T13:39:39.843Z,-2.38
2022-12-11T13:42:06.242Z,-2.23
2022-12-11T13:44:33.038Z,-2.30
2022-12-11T13:46:59.494Z,-2.26
2022-12-11T13:49:25.893Z,-2.07
2022-12-11T13:51:52.376Z,-2.19
2022-12-11T13:54:18.677Z,-2.21
2022-12-11T13:56:44.974Z,-2.12
2022-12-11T13:59:11.285Z,-2.40
2022-12-11T14:01:37.618Z,-2.46
2022-12-11T14:04:03.999Z,-2.38
2022-12-11T14:06:30.341Z,-2.37
2022-12-11T14:08:56.657Z,-2.48
2022-12-11T14:11:23.343Z,-2.43
2022-12-11T14:13:49.649Z,-2.38
2022-12-11T14:16:16.034Z,-2.60
2022-12-11T14:18:42.355Z,-2.41
2022-12-11T14:21:08.666Z,-2.52
2022-12-11T14:23:34.978Z,-2.53
2022-12-11T14:26:01.273Z,-2.55
2022-12-11T14:28:27.884Z,-2.85
2022-12-11T14:30:54.415Z,-2.68
2022-12-11T14:33:20.809Z,-2.75
2022-12-11T14:35:47.268Z,-2.74
2022-12-11T14:38:13.722Z,-2.59
2022-12-11T14:40:40.075Z,-2.63
2022-12-11T14:43:06.566Z,-2.81
2022-12-11T14:45:32.930Z,-2.78
2022-12-11T14:47:59.330Z,-2.84
2022-12-11T14:50:25.729Z,-2.79
2022-12-11T14:52:52.115Z,-2.88
2022-12-11T14:55:18.479Z,-2.96
2022-12-11T14:57:44.788Z,-2.85
2022-12-11T15:00:11.426Z,-2.72
2022-12-11T15:02:38.110Z,-2.77
2022-12-11T15:05:04.469Z,-2.76
2022-12-11T15:07:30.909Z,-2.51
2022-12-11T15:09:57.261Z,-2.85
2022-12-11T15:12:23.841Z,-2.61
2022-12-11T15:14:50.290Z,-2.80
2022-12-11T15:17:16.655Z,-2.57
2022-12-11T15:19:43.050Z,-2.74
2022-12-11T15:22:09.365Z,-2.87
2022-12-11T15:24:35.665Z,-2.86
2022-12-11T15:27:01.992Z,-2.70
2022-12-11T15:29:28.344Z,-2.75
2022-12-11T15:31:54.673Z,-2.69
2022-12-11T15:34:20.997Z,-2.68
2022-12-11T15:36:47.386Z,-2.63
2022-12-11T15:39:13.703Z,-2.89
2022-12-11T15:41:40.022Z,-2.75
2022-12-11T15:44:06.350Z,-2.76
2022-12-11T15:46:32.743Z,-2.76
2022-12-11T15:48:59.323Z,-2.50
2022-12-11T15:51:27.583Z,-2.50
2022-12-11T15:53:53.949Z,-2.80
2022-12-11T15:56:20.313Z,-2.82
2022-12-11T15:58:46.625Z,-2.68
2022-12-11T16:01:12.952Z,-2.65
2022-12-11T16:03:39.291Z,-2.73
2022-12-11T16:06:05.611Z,-2.85
2022-12-11T16:08:32.109Z,-2.82
2022-12-11T16:10:58.531Z,-2.94
2022-12-11T16:13:24.889Z,-3.06
2022-12-11T16:15:51.290Z,-2.90
2022-12-11T16:18:17.639Z,-3.00
2022-12-11T16:20:44.049Z,-3.01
2022-12-11T16:23:10.365Z,-3.01
2022-12-11T16:25:36.668Z,-3.05
2022-12-11T16:28:03.123Z,-2.98
2022-12-11T16:30:29.546Z,-2.95
2022-12-11T16:32:55.850Z,-2.97
2022-12-11T16:35:22.222Z,-2.95
2022-12-11T16:37:48.541Z,-2.97
2022-12-11T16:40:14.870Z,-2.96
2022-12-11T16:42:41.196Z,-3.14
2022-12-11T16:45:08.522Z,-2.98
2022-12-11T16:47:35.059Z,-2.75
2022-12-11T16:50:01.499Z,-2.79
2022-12-11T16:52:27.829Z,-2.89
2022-12-11T16:54:54.660Z,-3.07
2022-12-11T16:57:21.056Z,-3.06
2022-12-11T16:59:47.372Z,-3.07
2022-12-11T17:02:13.847Z,-3.11
2022-12-11T17:04:40.267Z,-3.11
2022-12-11T17:07:06.606Z,-3.03
2022-12-11T17:09:32.954Z,-3.06
2022-12-11T17:11:59.291Z,-3.08
2022-12-11T17:14:25.617Z,-3.25
2022-12-11T17:16:51.958Z,-3.08
2022-12-11T17:19:18.292Z,-2.93
2022-12-11T17:21:51.187Z,-3.05
2022-12-11T17:24:18.041Z,-3.12
2022-12-11T17:26:44.407Z,-3.02
2022-12-11T17:29:10.745Z,-3.02
2022-12-11T17:31:37.089Z,-3.06
2022-12-11T17:34:03.651Z,-2.92
2022-12-11T17:36:29.972Z,-2.95
2022-12-11T17:38:56.287Z,-3.05
2022-12-11T17:41:22.661Z,-2.99
2022-12-11T17:43:48.964Z,-3.06
2022-12-11T17:46:19.288Z,-2.98
2022-12-11T17:48:45.622Z,-3.02
2022-12-11T17:51:12.247Z,-3.08
2022-12-11T17:53:38.630Z,-3.08
2022-12-11T17:56:04.963Z,-3.07
2022-12-11T17:58:31.356Z,-3.07
2022-12-11T18:00:58.233Z,-2.93
2022-12-11T18:03:24.609Z,-2.74
2022-12-11T18:05:51.017Z,-2.71
2022-12-11T18:08:17.383Z,-2.78
2022-12-11T18:10:43.730Z,-2.87
2022-12-11T18:13:10.134Z,-2.65
2022-12-11T18:15:36.493Z,-2.63
2022-12-11T18:18:02.810Z,-2.58
2022-12-11T18:20:29.145Z,-2.50
2022-12-11T18:22:55.453Z,-2.73
2022-12-11T18:25:21.781Z,-2.88
2022-12-11T18:27:48.223Z,-2.55
2022-12-11T18:30:14.658Z,-2.71
2022-12-11T18:32:41.004Z,-2.72
2022-12-11T18:35:07.327Z,-2.80
2022-12-11T18:37:33.633Z,-2.46
2022-12-11T18:39:59.945Z,-2.73
2022-12-11T18:42:33.957Z,-2.74
2022-12-11T18:45:00.357Z,-2.63
2022-12-11T18:47:26.719Z,-2.79
2022-12-11T18:49:53.036Z,-2.73
2022-12-11T18:52:19.353Z,-2.45
2022-12-11T18:54:45.732Z,-2.49
2022-12-11T18:57:12.054Z,-2.89
2022-12-11T18:59:38.425Z,-2.65
2022-12-11T19:02:04.772Z,-2.64
2022-12-11T19:04:31.302Z,-2.83
2022-12-11T19:06:57.635Z,-2.67
2022-12-11T19:09:24.238Z,-2.93
2022-12-11T19:11:50.555Z,-2.93
2022-12-11T19:14:16.901Z,-2.88
2022-12-11T19:16:44.097Z,-2.91
2022-12-11T19:19:10.449Z,-2.89
2022-12-11T19:21:37.746Z,-2.95
2022-12-11T19:24:04.069Z,-2.88
2022-12-11T19:26:30.720Z,-2.64
2022-12-11T19:29:00.181Z,-2.76
2022-12-11T19:31:26.938Z,-2.39
2022-12-11T19:33:53.286Z,-2.87
2022-12-11T19:36:19.615Z,-2.85
2022-12-11T19:38:45.999Z,-2.86
2022-12-11T19:41:12.314Z,-2.78
2022-12-11T19:43:38.645Z,-2.72
2022-12-11T19:46:05.059Z,-2.77
2022-12-11T19:48:31.437Z,-2.78
2022-12-11T19:50:57.847Z,-2.82
2022-12-11T19:53:24.247Z,-2.85
2022-12-11T19:55:50.975Z,-2.66
2022-12-11T19:58:17.349Z,-2.84
2022-12-11T20:00:43.685Z,-2.77
2022-12-11T20:03:10.063Z,-2.71
2022-12-11T20:05:37.414Z,-2.81
2022-12-11T20:08:35.193Z,-2.90
2022-12-11T20:10:50.043Z,-2.95
2022-12-11T20:13:16.478Z,-3.03
2022-12-11T20:15:42.808Z,-2.75
2022-12-11T20:18:12.745Z,-3.04
2022-12-11T20:20:41.754Z,-3.24
2022-12-11T20:23:08.597Z,-2.88
2022-12-11T20:25:34.911Z,-3.15
2022-12-11T20:28:01.245Z,-3.24
2022-12-11T20:30:27.570Z,-3.11
2022-12-11T20:32:53.877Z,-3.30
2022-12-11T20:35:20.206Z,-3.09
2022-12-11T20:37:46.531Z,-3.17
2022-12-11T20:40:13.254Z,-3.09
2022-12-11T20:42:39.567Z,-3.14
2022-12-11T20:45:05.883Z,-3.25
2022-12-11T20:47:32.225Z,-3.21
2022-12-11T20:49:58.613Z,-3.19
2022-12-11T20:52:24.937Z,-3.11
2022-12-11T20:54:51.303Z,-3.08
2022-12-11T20:57:17.660Z,-3.02
2022-12-11T20:59:45.273Z,-2.99
2022-12-11T21:02:11.639Z,-3.06
2022-12-11T21:04:39.848Z,-2.99
2022-12-11T21:07:06.154Z,-2.92
2022-12-11T21:09:32.582Z,-3.10
2022-12-11T21:12:00.813Z,-3.24
2022-12-11T21:14:27.157Z,-3.11
2022-12-11T21:16:53.580Z,-3.00
2022-12-11T21:19:22.212Z,-2.97
2022-12-11T21:21:48.726Z,-3.22
2022-12-11T21:24:15.110Z,-3.14
2022-12-11T21:26:41.422Z,-2.97
2022-12-11T21:29:07.745Z,-3.15
2022-12-11T21:31:34.082Z,-3.11
2022-12-11T21:34:00.495Z,-3.19
2022-12-11T21:36:26.820Z,-3.12
2022-12-11T21:38:53.390Z,-3.01
2022-12-11T21:41:19.721Z,-3.11
2022-12-11T21:44:40.995Z,-3.14
2022-12-11T22:01:02.807Z,-3.18
2022-12-11T22:03:29.175Z,-3.32
2022-12-11T22:05:55.538Z,-3.51
2022-12-11T22:08:21.901Z,-3.29
2022-12-11T22:10:48.311Z,-3.27
2022-12-11T22:13:14.662Z,-3.32
2022-12-11T22:15:41.010Z,-3.27
2022-12-11T22:18:07.332Z,-3.20
2022-12-11T22:20:33.661Z,-3.15
2022-12-11T22:23:00.054Z,-3.26
2022-12-11T22:25:26.365Z,-3.35
2022-12-11T22:27:52.693Z,-3.27
2022-12-11T22:30:19.012Z,-3.33
2022-12-11T22:32:45.410Z,-3.30
2022-12-11T22:35:12.061Z,-3.12
2022-12-11T22:37:38.667Z,-3.40
2022-12-11T22:40:05.198Z,-3.33
2022-12-11T22:42:31.983Z,-3.42
2022-12-11T22:44:58.352Z,-3.24
2022-12-11T22:47:24.663Z,-3.24
2022-12-11T22:49:50.981Z,-3.43
2022-12-11T22:52:17.289Z,-3.46
2022-12-11T22:54:43.598Z,-3.28
2022-12-11T22:57:09.972Z,-3.23
2022-12-11T22:59:36.342Z,-3.32
2022-12-11T23:02:02.689Z,-3.19
2022-12-11T23:04:29.043Z,-3.18
2022-12-11T23:06:55.357Z,-3.17
2022-12-11T23:09:21.693Z,-3.37
2022-12-11T23:11:48.005Z,-3.33
2022-12-11T23:14:14.360Z,-3.46
2022-12-11T23:16:40.745Z,-3.40
2022-12-11T23:19:07.131Z,-3.36
2022-12-11T23:21:33.483Z,-3.31
2022-12-11T23:23:59.938Z,-3.49
2022-12-11T23:26:27.347Z,-3.40
2022-12-11T23:28:53.818Z,-3.30
2022-12-11T23:31:20.165Z,-3.28
2022-12-11T23:33:46.492Z,-3.14
2022-12-11T23:36:12.807Z,-3.35
2022-12-11T23:38:39.118Z,-3.29
2022-12-11T23:41:05.458Z,-3.21
2022-12-11T23:43:31.789Z,-3.25
2022-12-11T23:45:58.142Z,-3.27
2022-12-11T23:48:24.529Z,-3.27
2022-12-11T23:50:50.864Z,-3.31
2022-12-11T23:53:17.207Z,-3.33
2022-12-11T23:55:43.527Z,-3.36
2022-12-11T23:58:10.934Z,-3.27
